Time;durP1;ratioP1;P1;durP2;ratioP2;P2;SDS_P1;SDS_P2;PMS_P1;PMS_P2;Temp;Humidity;BMP_temperature;BMP_pressure;BME280_temperature;BME280_humidity;BME280_pressure;Samples;Min_cycle;Max_cycle;Signal;HPM_P1;HPM_P2
2024/01/31 00:00:38;;;;;;;68.33;32.60;;;;;;;-0.88;73.68;102513.91;122719;1102;104284;-75
2024/01/31 00:03:29;;;;;;;70.30;32.50;;;;;;;-0.86;72.70;102506.35;122694;1102;104316;-75
2024/01/31 00:06:01;;;;;;;71.43;32.83;;;;;;;-0.84;73.75;102516.10;122769;1103;104345;-75
2024/01/31 00:08:33;;;;;;;68.53;31.50;;;;;;;-0.82;73.15;102511.13;122785;1102;104353;-76
2024/01/31 00:11:05;;;;;;;63.67;30.67;;;;;;;-0.83;73.72;102512.77;122802;1102;104290;-75
2024/01/31 00:13:36;;;;;;;67.57;31.63;;;;;;;-0.81;73.13;102518.09;122691;1102;104309;-75
2024/01/31 00:16:08;;;;;;;69.83;34.00;;;;;;;-0.81;73.08;102510.36;122932;1102;104399;-75
2024/01/31 00:18:39;;;;;;;64.57;31.37;;;;;;;-0.82;73.57;102506.88;122843;1102;104320;-75
2024/01/31 00:21:10;;;;;;;72.13;32.37;;;;;;;-0.83;73.86;102507.61;122916;1102;104235;-75
2024/01/31 00:23:41;;;;;;;71.97;33.87;;;;;;;-0.87;73.49;102502.87;122672;1102;104739;-75
2024/01/31 00:26:13;;;;;;;76.03;33.73;;;;;;;-0.89;73.46;102504.33;122695;1102;104254;-75
2024/01/31 00:28:44;;;;;;;71.70;31.70;;;;;;;-0.91;73.17;102508.41;122757;1102;104363;-75
2024/01/31 00:31:15;;;;;;;69.80;33.37;;;;;;;-0.91;74.30;102503.25;122714;1102;104316;-75
2024/01/31 00:33:47;;;;;;;71.35;32.50;;;;;;;-0.93;73.19;102504.75;122646;1101;104763;-75
2024/01/31 00:36:18;;;;;;;71.40;34.45;;;;;;;-0.96;73.18;102510.45;122707;1102;104259;-74
2024/01/31 00:38:49;;;;;;;68.13;33.07;;;;;;;-1.02;73.90;102501.13;122627;1102;104386;-75
2024/01/31 00:41:23;;;;;;;69.20;32.50;;;;;;;-1.07;72.98;102502.27;122740;1102;104233;-75
2024/01/31 00:43:54;;;;;;;71.03;31.43;;;;;;;-1.10;73.15;102505.39;122736;1102;104306;-75
2024/01/31 00:46:25;;;;;;;69.33;33.13;;;;;;;-1.11;74.35;102508.70;122718;1102;104283;-75
2024/01/31 00:48:57;;;;;;;68.23;32.00;;;;;;;-1.12;74.48;102510.38;122737;1102;104284;-75
2024/01/31 00:51:28;;;;;;;71.90;31.70;;;;;;;-1.12;73.90;102514.63;122698;1102;104316;-75
2024/01/31 00:54:00;;;;;;;66.13;32.30;;;;;;;-1.11;73.79;102506.12;122664;1102;104270;-75
2024/01/31 00:56:31;;;;;;;69.57;34.53;;;;;;;-1.11;73.30;102503.55;122675;1102;104366;-75
2024/01/31 00:59:03;;;;;;;71.00;31.63;;;;;;;-1.12;73.89;102496.59;122741;1102;104754;-75
2024/01/31 01:01:34;;;;;;;68.87;32.73;;;;;;;-1.11;74.01;102491.61;122678;1102;104252;-75
2024/01/31 01:04:08;;;;;;;73.17;35.27;;;;;;;-1.11;74.26;102493.24;122732;1102;104623;-75
2024/01/31 01:06:41;;;;;;;77.78;36.15;;;;;;;-1.13;74.58;102487.91;122752;1102;104300;-76
2024/01/31 01:09:13;;;;;;;68.25;33.70;;;;;;;-1.14;73.41;102486.11;122742;1102;104281;-75
2024/01/31 01:11:44;;;;;;;75.73;33.97;;;;;;;-1.12;74.18;102482.03;122708;1101;104287;-76
2024/01/31 01:14:16;;;;;;;70.40;33.80;;;;;;;-1.11;74.16;102483.87;122710;1102;104300;-75
2024/01/31 01:16:47;;;;;;;69.93;33.80;;;;;;;-1.10;74.32;102479.62;122686;1102;104660;-75
2024/01/31 01:19:20;;;;;;;71.35;32.95;;;;;;;-1.09;74.13;102476.33;122807;1102;104370;-75
2024/01/31 01:21:53;;;;;;;66.90;32.20;;;;;;;-1.08;74.19;102475.56;122733;1102;104697;-75
2024/01/31 01:24:26;;;;;;;69.70;32.47;;;;;;;-1.06;75.18;102473.16;122717;1102;104733;-75
2024/01/31 01:26:57;;;;;;;66.55;31.77;;;;;;;-1.07;75.10;102464.52;122763;1102;104264;-75
2024/01/31 01:29:28;;;;;;;68.83;32.53;;;;;;;-1.08;74.31;102465.25;122682;1102;104281;-75
2024/01/31 01:31:59;;;;;;;67.80;32.47;;;;;;;-1.11;74.86;102460.69;122759;1102;104281;-75
2024/01/31 01:34:30;;;;;;;74.75;35.20;;;;;;;-1.13;74.27;102462.15;122746;1102;104373;-75
2024/01/31 01:37:02;;;;;;;74.17;34.90;;;;;;;-1.15;73.82;102461.07;122771;1102;104280;-75
2024/01/31 01:39:33;;;;;;;77.00;35.73;;;;;;;-1.17;74.01;102465.14;122686;1101;104287;-75
2024/01/31 01:42:04;;;;;;;74.15;35.75;;;;;;;-1.21;74.43;102454.31;122704;1102;104290;-75
2024/01/31 01:44:40;;;;;;;72.20;36.03;;;;;;;-1.25;74.82;102450.45;122688;1102;104297;-75
2024/01/31 01:47:11;;;;;;;75.57;35.30;;;;;;;-1.30;75.03;102449.02;122790;1102;104393;-75
2024/01/31 01:49:43;;;;;;;75.83;36.43;;;;;;;-1.32;74.81;102453.08;122821;1102;104280;-74
2024/01/31 01:52:16;;;;;;;74.45;36.20;;;;;;;-1.31;74.56;102449.75;122691;1102;104711;-75
2024/01/31 01:54:47;;;;;;;75.27;37.47;;;;;;;-1.34;75.11;102446.81;122773;1102;104335;-75
2024/01/31 01:57:20;;;;;;;70.93;35.20;;;;;;;-1.36;74.37;102448.31;122700;1102;104373;-75
2024/01/31 01:59:52;;;;;;;77.80;36.73;;;;;;;-1.40;74.04;102441.91;122699;1102;104315;-75
2024/01/31 02:02:23;;;;;;;76.07;35.47;;;;;;;-1.41;75.11;102441.73;122701;1102;104326;-75
2024/01/31 02:04:55;;;;;;;72.90;36.00;;;;;;;-1.46;74.19;102442.11;122679;1102;104303;-75
2024/01/31 02:07:27;;;;;;;73.57;35.37;;;;;;;-1.48;74.86;102441.02;122740;1102;104415;-75
2024/01/31 02:09:59;;;;;;;73.75;34.50;;;;;;;-1.52;75.05;102433.67;122686;1102;104326;-75
2024/01/31 02:12:30;;;;;;;71.47;35.00;;;;;;;-1.53;74.29;102439.55;122753;1102;104482;-75
2024/01/31 02:15:01;;;;;;;69.65;33.45;;;;;;;-1.55;74.43;102437.56;122644;1102;104281;-74
2024/01/31 02:17:33;;;;;;;76.60;36.80;;;;;;;-1.58;75.17;102434.64;122690;1102;104354;-75
2024/01/31 02:20:05;;;;;;;79.47;37.23;;;;;;;-1.59;74.79;102437.94;122665;1102;104281;-75
2024/01/31 02:22:36;;;;;;;80.03;38.40;;;;;;;-1.59;74.10;102433.73;122726;1102;104284;-75
2024/01/31 02:25:14;;;;;;;75.00;37.25;;;;;;;-1.63;74.62;102431.53;122747;1102;104399;-75
2024/01/31 02:27:45;;;;;;;81.83;38.27;;;;;;;-1.70;74.19;102434.13;122740;1102;104711;-75
2024/01/31 02:30:17;;;;;;;80.20;38.10;;;;;;;-1.80;74.91;102445.02;122686;1102;104284;-75
2024/01/31 02:32:48;;;;;;;74.67;37.33;;;;;;;-1.89;74.73;102438.80;122710;1102;104280;-75
2024/01/31 02:35:19;;;;;;;80.70;39.23;;;;;;;-1.92;75.23;102441.02;122734;1102;104264;-75
2024/01/31 02:37:51;;;;;;;78.63;39.47;;;;;;;-1.94;73.95;102438.27;122829;1102;104514;-75
2024/01/31 02:40:22;;;;;;;77.97;39.63;;;;;;;-1.94;73.96;102437.36;122661;1105;104364;-75
2024/01/31 02:42:54;;;;;;;82.73;38.37;;;;;;;-1.98;74.43;102433.48;122694;1102;104738;-75
2024/01/31 02:45:25;;;;;;;75.80;35.80;;;;;;;-1.99;74.33;102430.01;122685;1102;104281;-75
2024/01/31 02:47:56;;;;;;;69.37;35.00;;;;;;;-1.95;74.55;102427.80;122689;1102;104252;-75
2024/01/31 02:50:31;;;;;;;78.60;36.93;;;;;;;-1.91;74.77;102430.91;122736;1101;104357;-75
2024/01/31 02:53:02;;;;;;;76.53;37.17;;;;;;;-1.88;74.73;102430.35;122651;1102;104422;-75
2024/01/31 02:55:34;;;;;;;79.90;39.60;;;;;;;-1.86;75.34;102426.30;122849;1102;104185;-74
2024/01/31 02:58:05;;;;;;;81.40;39.53;;;;;;;-1.88;75.31;102420.97;122708;1102;104345;-74
2024/01/31 03:00:36;;;;;;;81.17;38.80;;;;;;;-1.87;74.25;102424.45;122691;1102;104286;-75
2024/01/31 03:03:07;;;;;;;86.67;40.10;;;;;;;-1.86;74.79;102424.62;122742;1102;104466;-75
2024/01/31 03:05:38;;;;;;;84.77;41.20;;;;;;;-1.87;74.99;102427.02;122667;1102;104325;-75
2024/01/31 03:08:10;;;;;;;92.90;43.20;;;;;;;-1.87;74.73;102420.23;122803;1102;104341;-75
2024/01/31 03:10:44;;;;;;;85.23;39.90;;;;;;;-1.90;74.83;102425.03;122743;1102;104287;-75
2024/01/31 03:13:15;;;;;;;90.75;45.00;;;;;;;-1.92;74.59;102421.34;122766;1102;104357;-75
2024/01/31 03:15:46;;;;;;;91.83;45.20;;;;;;;-1.90;74.76;102412.16;122801;1102;104834;-75
2024/01/31 03:18:17;;;;;;;90.90;43.40;;;;;;;-1.93;74.83;102416.95;122711;1102;104287;-75
2024/01/31 03:20:54;;;;;;;94.70;44.20;;;;;;;-1.95;75.40;102409.78;122709;1102;104300;-75
2024/01/31 03:23:25;;;;;;;84.97;41.03;;;;;;;-1.97;74.56;102412.17;122936;1102;104252;-75
2024/01/31 03:25:56;;;;;;;85.00;41.67;;;;;;;-1.97;75.07;102407.03;122714;1102;104374;-75
2024/01/31 03:28:28;;;;;;;91.00;42.60;;;;;;;-1.96;75.41;102408.88;122783;1102;104383;-75
2024/01/31 03:30:59;;;;;;;92.47;46.20;;;;;;;-1.96;75.01;102395.08;122670;1102;104258;-74
2024/01/31 03:33:30;;;;;;;87.15;44.75;;;;;;;-1.98;75.62;102394.89;122874;1102;104226;-75
2024/01/31 03:36:01;;;;;;;95.43;45.83;;;;;;;-2.01;75.30;102399.69;122667;1101;104719;-75
2024/01/31 03:38:32;;;;;;;92.80;45.67;;;;;;;-2.03;74.57;102396.02;122721;1102;104361;-75
2024/01/31 03:41:06;;;;;;;99.30;47.47;;;;;;;-2.08;75.11;102394.59;122647;1102;104376;-75
2024/01/31 03:43:37;;;;;;;91.30;46.73;;;;;;;-2.10;74.97;102393.47;122663;1102;104251;-75
2024/01/31 03:46:09;;;;;;;94.67;46.37;;;;;;;-2.11;74.43;102391.66;122727;1102;104267;-75
2024/01/31 03:48:40;;;;;;;95.13;47.27;;;;;;;-2.14;74.49;102391.30;122991;1102;104288;-75
2024/01/31 03:51:21;;;;;;;85.23;42.60;;;;;;;-2.15;75.57;102394.59;122695;1102;104684;-76
2024/01/31 03:53:52;;;;;;;80.40;41.67;;;;;;;-2.22;75.28;102387.83;122829;1102;104316;-75
2024/01/31 03:56:24;;;;;;;91.30;43.43;;;;;;;-2.32;75.58;102388.41;122815;1102;104360;-75
2024/01/31 03:58:55;;;;;;;87.03;43.37;;;;;;;-2.38;74.59;102390.27;122711;1102;104364;-75
2024/01/31 04:01:26;;;;;;;97.43;46.10;;;;;;;-2.41;75.54;102393.38;122702;1102;104352;-75
2024/01/31 04:03:57;;;;;;;84.07;42.27;;;;;;;-2.44;74.52;102395.59;122726;1102;104255;-74
2024/01/31 04:06:28;;;;;;;82.70;41.43;;;;;;;-2.49;75.71;102389.00;122718;1102;104325;-75
2024/01/31 04:08:59;;;;;;;77.83;39.10;;;;;;;-2.52;75.46;102391.20;122659;1102;104328;-75
2024/01/31 04:11:34;;;;;;;82.43;39.33;;;;;;;-2.53;75.50;102386.79;122687;1102;104233;-75
2024/01/31 04:14:05;;;;;;;82.90;39.13;;;;;;;-2.55;75.18;102389.18;122722;1101;104338;-74
2024/01/31 04:16:36;;;;;;;86.10;41.65;;;;;;;-2.56;75.76;102394.14;122706;1102;104348;-75
2024/01/31 04:19:07;;;;;;;79.30;39.73;;;;;;;-2.57;74.74;102392.30;122678;1102;104361;-75
2024/01/31 04:21:39;;;;;;;82.90;41.85;;;;;;;-2.60;74.53;102389.36;122690;1102;107043;-75
2024/01/31 04:24:10;;;;;;;79.50;40.10;;;;;;;-2.60;74.99;102390.30;122628;1102;104275;-75
2024/01/31 04:26:45;;;;;;;81.17;40.00;;;;;;;-2.62;75.18;102384.03;122708;1102;104246;-75
2024/01/31 04:29:16;;;;;;;80.55;39.25;;;;;;;-2.64;74.92;102388.09;122682;1103;104286;-75
2024/01/31 04:31:52;;;;;;;78.03;38.90;;;;;;;-2.68;74.71;102388.48;122652;1102;104692;-74
2024/01/31 04:34:23;;;;;;;83.20;39.70;;;;;;;-2.69;75.10;102390.88;122979;1102;104685;-75
2024/01/31 04:36:55;;;;;;;86.10;42.93;;;;;;;-2.68;75.98;102383.34;122696;1103;104360;-75
2024/01/31 04:39:26;;;;;;;87.40;42.85;;;;;;;-2.65;75.17;102386.28;122670;1103;104360;-75
2024/01/31 04:41:57;;;;;;;90.30;42.30;;;;;;;-2.64;75.93;102389.75;122684;1103;104277;-75
2024/01/31 04:44:29;;;;;;;84.95;44.20;;;;;;;-2.67;75.29;102391.95;122705;1101;104742;-75
2024/01/31 04:47:00;;;;;;;92.73;46.10;;;;;;;-2.65;75.94;102398.19;122708;1102;104313;-75
2024/01/31 04:49:32;;;;;;;91.80;46.50;;;;;;;-2.65;75.26;102391.42;122688;1102;104306;-75
2024/01/31 04:52:03;;;;;;;91.57;46.33;;;;;;;-2.66;76.03;102394.71;122749;1102;104269;-74
2024/01/31 04:54:38;;;;;;;99.17;46.57;;;;;;;-2.64;75.93;102400.03;122723;1102;104281;-75
2024/01/31 04:57:09;;;;;;;99.33;46.20;;;;;;;-2.65;75.82;102400.76;122776;1103;104700;-75
2024/01/31 04:59:42;;;;;;;100.20;49.57;;;;;;;-2.65;76.21;102401.70;122726;1102;104353;-75
2024/01/31 05:02:13;;;;;;;102.20;47.07;;;;;;;-2.66;75.55;102397.28;122813;1102;104278;-75
2024/01/31 05:04:44;;;;;;;96.57;48.20;;;;;;;-2.68;75.25;102403.91;122710;1102;104281;-75
2024/01/31 05:07:15;;;;;;;95.63;46.80;;;;;;;-2.67;75.12;102399.67;122949;1102;104274;-75
2024/01/31 05:09:46;;;;;;;102.20;48.13;;;;;;;-2.67;75.11;102400.58;122719;1102;104395;-75
2024/01/31 05:12:18;;;;;;;94.55;47.60;;;;;;;-2.69;75.00;102391.78;122660;1102;104354;-75
2024/01/31 05:14:49;;;;;;;98.83;48.73;;;;;;;-2.71;75.77;102398.40;122732;1102;104258;-75
2024/01/31 05:17:20;;;;;;;97.97;49.83;;;;;;;-2.74;75.25;102398.94;122717;1102;104322;-75
2024/01/31 05:19:51;;;;;;;93.07;47.00;;;;;;;-2.73;74.73;102394.70;122701;1102;104690;-75
2024/01/31 05:22:23;;;;;;;99.27;48.97;;;;;;;-2.76;75.24;102391.77;122786;1102;104405;-75
2024/01/31 05:24:54;;;;;;;91.10;45.70;;;;;;;-2.81;75.52;102393.79;122890;1102;104255;-75
2024/01/31 05:27:25;;;;;;;89.03;43.63;;;;;;;-2.81;74.89;102393.79;122976;1102;104283;-75
2024/01/31 05:29:56;;;;;;;92.83;46.60;;;;;;;-2.80;75.40;102393.06;122996;1102;104214;-75
2024/01/31 05:32:27;;;;;;;92.07;45.23;;;;;;;-2.87;74.85;102382.78;122770;1102;104392;-75
2024/01/31 05:34:58;;;;;;;95.43;46.90;;;;;;;-2.79;74.95;102387.20;122874;1102;104437;-74
2024/01/31 05:37:29;;;;;;;91.30;46.30;;;;;;;-2.79;75.30;102387.20;122714;1102;104316;-75
2024/01/31 05:40:00;;;;;;;94.20;46.93;;;;;;;-2.78;76.15;102390.68;122929;1102;104712;-74
2024/01/31 05:42:32;;;;;;;96.30;45.40;;;;;;;-2.78;74.89;102388.11;122848;1102;104399;-75
2024/01/31 05:45:03;;;;;;;104.83;49.50;;;;;;;-2.81;75.28;102387.75;123332;1102;104328;-75
2024/01/31 05:47:35;;;;;;;94.93;47.90;;;;;;;-2.80;75.59;102387.02;123387;1101;104243;-75
2024/01/31 05:50:09;;;;;;;105.43;50.67;;;;;;;-2.77;75.79;102377.11;123553;1102;104230;-75
2024/01/31 05:52:40;;;;;;;104.65;52.05;;;;;;;-2.74;75.76;102382.61;123123;1102;104277;-75
2024/01/31 05:55:15;;;;;;;106.70;53.50;;;;;;;-2.70;75.65;102384.79;123198;1102;104252;-75
2024/01/31 05:57:52;;;;;;;126.20;64.77;;;;;;;-2.70;75.66;102379.65;122963;1105;104389;-75
2024/01/31 06:00:23;;;;;;;135.70;68.57;;;;;;;-2.70;76.04;102384.79;122900;1102;104383;-74
2024/01/31 06:02:54;;;;;;;135.63;69.50;;;;;;;-2.66;76.16;102381.86;123225;1106;104366;-74
2024/01/31 06:05:26;;;;;;;134.57;65.40;;;;;;;-2.62;76.24;102378.89;122896;1102;104306;-75
2024/01/31 06:07:57;;;;;;;119.17;60.40;;;;;;;-2.61;75.82;102378.17;123367;1102;104395;-75
2024/01/31 06:10:29;;;;;;;126.43;61.77;;;;;;;-2.59;75.81;102374.12;123614;1102;104384;-75
2024/01/31 06:13:00;;;;;;;117.57;59.57;;;;;;;-2.55;75.85;102373.75;123468;1102;104457;-75
2024/01/31 06:15:31;;;;;;;133.27;67.83;;;;;;;-2.50;76.25;102371.73;123097;1102;104386;-75
2024/01/31 06:18:03;;;;;;;130.13;64.47;;;;;;;-2.48;76.33;102372.81;123271;1102;104383;-74
2024/01/31 06:20:40;;;;;;;130.40;69.27;;;;;;;-2.54;76.01;102367.89;123309;1102;104824;-74
2024/01/31 06:23:11;;;;;;;136.10;71.67;;;;;;;-2.65;75.73;102365.72;123377;1102;104204;-75
2024/01/31 06:25:42;;;;;;;132.17;68.73;;;;;;;-2.72;75.08;102375.99;123443;1102;104341;-75
2024/01/31 06:28:13;;;;;;;129.60;70.87;;;;;;;-2.77;75.73;102370.30;123978;1102;104203;-75
2024/01/31 06:30:45;;;;;;;125.73;68.77;;;;;;;-2.79;75.75;102368.28;123699;1102;104192;-75
2024/01/31 06:33:17;;;;;;;130.33;69.27;;;;;;;-2.75;75.44;102368.83;123520;1103;104181;-75
2024/01/31 06:35:56;;;;;;;126.07;70.07;;;;;;;-2.64;75.28;102370.09;124053;1102;101868;-76
2024/01/31 06:38:29;;;;;;;128.95;71.45;;;;;;;-2.49;75.31;102362.35;123584;1102;104357;-75
2024/01/31 06:41:01;;;;;;;120.30;64.63;;;;;;;-2.33;75.76;102358.28;123956;1102;104213;-74
2024/01/31 06:43:36;;;;;;;120.60;67.47;;;;;;;-2.24;76.51;102356.78;123617;1102;104261;-76
2024/01/31 06:46:08;;;;;;;122.40;66.93;;;;;;;-2.08;75.77;102358.57;123741;1102;104182;-75
2024/01/31 06:48:39;;;;;;;136.13;72.17;;;;;;;-1.97;76.21;102355.58;123675;1102;104182;-75
2024/01/31 06:51:11;;;;;;;129.35;72.05;;;;;;;-1.84;76.15;102355.32;123477;1102;104386;-75
2024/01/31 06:53:42;;;;;;;139.37;71.90;;;;;;;-1.69;76.77;102351.03;123422;1102;105640;-73
2024/01/31 06:56:17;;;;;;;130.30;74.77;;;;;;;-1.56;76.31;102351.66;123529;1102;104185;-74
2024/01/31 06:58:49;;;;;;;134.25;73.40;;;;;;;-1.43;76.99;102355.63;123731;1102;104636;-73
2024/01/31 07:01:20;;;;;;;137.30;70.47;;;;;;;-1.32;76.44;102353.54;123632;1102;102090;-73
2024/01/31 07:03:52;;;;;;;133.80;71.50;;;;;;;-1.23;76.34;102353.67;123725;1102;104390;-74
2024/01/31 07:06:23;;;;;;;135.77;68.23;;;;;;;-1.13;76.77;102351.36;123593;1102;104258;-74
2024/01/31 07:08:56;;;;;;;133.67;69.67;;;;;;;-1.04;76.75;102356.64;124186;1102;103125;-76
2024/01/31 07:11:30;;;;;;;118.10;61.53;;;;;;;-0.96;76.13;102360.08;123763;1102;104233;-75
2024/01/31 07:14:01;;;;;;;118.55;61.85;;;;;;;-0.90;76.68;102358.19;124034;1105;104198;-76
2024/01/31 07:16:34;;;;;;;107.77;54.50;;;;;;;-0.83;76.93;102365.83;123972;1102;104239;-75
2024/01/31 07:19:06;;;;;;;106.27;53.37;;;;;;;-0.80;76.82;102361.02;123803;1102;104252;-75
2024/01/31 07:21:37;;;;;;;101.77;52.53;;;;;;;-0.77;76.49;102348.47;123893;1105;102092;-75
2024/01/31 07:24:09;;;;;;;99.40;50.90;;;;;;;-0.72;76.30;102356.71;123670;1103;104255;-75
2024/01/31 07:26:40;;;;;;;95.33;47.93;;;;;;;-0.66;76.81;102347.08;123642;1105;104181;-75
2024/01/31 07:29:12;;;;;;;94.60;46.97;;;;;;;-0.57;77.38;102352.34;123931;1102;104271;-76
2024/01/31 07:31:43;;;;;;;93.43;48.30;;;;;;;-0.48;77.16;102348.20;123697;1103;104344;-75
2024/01/31 07:34:14;;;;;;;95.13;44.30;;;;;;;-0.40;77.34;102351.61;123782;1103;104182;-75
2024/01/31 07:36:46;;;;;;;93.43;46.57;;;;;;;-0.34;76.65;102349.70;123708;1102;104953;-74
2024/01/31 07:39:17;;;;;;;82.87;42.90;;;;;;;-0.26;77.04;102342.80;123932;1105;104254;-74
2024/01/31 07:41:48;;;;;;;84.70;44.37;;;;;;;-0.19;77.15;102340.11;123779;1102;104258;-75
2024/01/31 07:44:20;;;;;;;93.33;48.90;;;;;;;-0.08;77.60;102346.44;123975;1102;104184;-75
2024/01/31 07:46:51;;;;;;;90.07;45.20;;;;;;;-0.05;77.26;102347.70;123817;1102;102356;-75
2024/01/31 07:49:22;;;;;;;99.83;49.80;;;;;;;0.04;77.44;102347.76;123940;1103;103364;-75
2024/01/31 07:51:56;;;;;;;89.60;45.30;;;;;;;0.12;77.26;102344.31;123810;1105;103364;-75
2024/01/31 07:54:28;;;;;;;81.07;39.00;;;;;;;0.22;77.06;102343.66;123848;1102;104201;-75
2024/01/31 07:57:00;;;;;;;87.03;43.87;;;;;;;0.30;77.12;102340.22;124053;1105;104252;-75
2024/01/31 07:59:31;;;;;;;87.35;45.60;;;;;;;0.39;77.12;102341.94;124223;1103;104255;-75
2024/01/31 08:02:04;;;;;;;90.43;45.00;;;;;;;0.48;77.12;102343.84;123965;1105;102464;-74
2024/01/31 08:04:35;;;;;;;90.30;46.47;;;;;;;0.52;77.06;102345.98;123945;1105;104257;-75
2024/01/31 08:07:08;;;;;;;79.13;40.20;;;;;;;0.62;77.00;102346.95;123929;1105;104732;-76
2024/01/31 08:09:42;;;;;;;75.93;38.77;;;;;;;0.69;77.08;102339.09;123891;1102;104118;-75
2024/01/31 08:12:13;;;;;;;71.00;38.40;;;;;;;0.78;77.53;102341.71;123919;1105;103018;-75
2024/01/31 08:14:58;;;;;;;69.27;37.03;;;;;;;0.94;78.19;102339.98;123889;1105;103192;-76
2024/01/31 08:17:30;;;;;;;63.63;34.60;;;;;;;1.11;77.47;102333.03;123983;1102;103425;-76
2024/01/31 08:20:02;;;;;;;67.97;34.67;;;;;;;1.25;76.97;102333.70;123827;1102;104217;-75
2024/01/31 08:22:35;;;;;;;65.63;33.87;;;;;;;1.39;77.58;102324.77;123794;1103;103395;-75
2024/01/31 08:25:07;;;;;;;68.23;34.17;;;;;;;1.52;77.36;102324.33;123890;1102;104281;-76
2024/01/31 08:27:38;;;;;;;70.33;33.83;;;;;;;1.62;76.76;102323.58;124091;1102;104127;-75
2024/01/31 08:30:12;;;;;;;69.27;34.17;;;;;;;1.69;77.43;102320.86;123897;1102;104214;-76
2024/01/31 08:32:44;;;;;;;69.70;33.83;;;;;;;1.77;77.12;102319.94;124014;1101;104361;-76
2024/01/31 08:35:16;;;;;;;71.77;34.87;;;;;;;1.86;76.64;102319.96;123701;1102;104376;-75
2024/01/31 08:37:49;;;;;;;65.70;35.53;;;;;;;1.91;76.94;102323.91;123802;1102;104239;-76
2024/01/31 08:40:22;;;;;;;70.53;35.67;;;;;;;2.03;76.97;102324.23;123814;1105;104261;-75
2024/01/31 08:42:58;;;;;;;63.83;33.27;;;;;;;2.16;76.98;102327.25;123920;1102;104267;-75
2024/01/31 08:45:31;;;;;;;66.97;35.93;;;;;;;2.29;77.32;102320.69;123884;1102;103069;-77
2024/01/31 08:48:03;;;;;;;67.03;35.63;;;;;;;2.41;77.30;102324.48;123829;1102;104282;-76
2024/01/31 08:50:35;;;;;;;72.47;36.70;;;;;;;2.50;76.69;102314.11;123912;1102;104265;-76
2024/01/31 08:53:06;;;;;;;68.80;36.73;;;;;;;2.63;77.25;102305.83;123727;1102;103057;-76
2024/01/31 08:55:38;;;;;;;74.33;38.00;;;;;;;2.77;77.03;102295.10;123919;1102;102823;-75
2024/01/31 08:58:10;;;;;;;70.63;36.53;;;;;;;2.88;77.11;102297.06;123912;1102;104204;-77
2024/01/31 09:00:41;;;;;;;68.23;35.03;;;;;;;3.02;77.32;102298.37;123841;1102;104208;-76
2024/01/31 09:03:20;;;;;;;65.20;34.10;;;;;;;3.15;77.04;102292.66;123960;1102;105017;-77
2024/01/31 09:05:59;;;;;;;64.63;33.87;;;;;;;3.28;77.18;102293.81;123806;1102;103055;-76
2024/01/31 09:08:36;;;;;;;62.60;32.77;;;;;;;3.39;77.61;102294.03;123749;1102;104188;-77
2024/01/31 09:11:09;;;;;;;62.37;32.67;;;;;;;3.50;77.29;102294.13;123792;1102;104178;-76
2024/01/31 09:13:42;;;;;;;62.30;31.70;;;;;;;3.62;77.24;102289.17;123893;1102;104300;-75
2024/01/31 09:16:15;;;;;;;51.43;26.27;;;;;;;3.74;76.96;102290.27;123888;1101;103605;-75
2024/01/31 09:18:46;;;;;;;45.23;24.07;;;;;;;3.86;77.35;102283.60;123895;1102;103188;-76
2024/01/31 09:21:26;;;;;;;48.27;23.43;;;;;;;3.97;77.59;102279.39;123911;1103;104258;-77
2024/01/31 09:23:57;;;;;;;44.50;23.00;;;;;;;4.10;77.33;102268.45;123909;1102;103686;-76
2024/01/31 09:26:31;;;;;;;45.13;22.77;;;;;;;4.20;77.41;102265.88;123858;1105;104838;-76
2024/01/31 09:29:07;;;;;;;41.60;21.03;;;;;;;4.29;76.64;102261.50;123856;1105;104313;-77
2024/01/31 09:31:39;;;;;;;44.27;22.83;;;;;;;4.40;77.11;102256.36;123750;1105;102946;-75
2024/01/31 09:34:14;;;;;;;43.07;22.27;;;;;;;4.49;76.25;102249.38;123930;1105;104452;-76
2024/01/31 09:36:48;;;;;;;43.30;22.27;;;;;;;4.56;76.62;102243.92;123961;1102;103241;-76
2024/01/31 09:39:22;;;;;;;44.90;22.30;;;;;;;4.62;76.22;102240.95;123885;1105;104236;-76
2024/01/31 09:41:56;;;;;;;42.83;20.52;;;;;;;4.67;76.20;102234.45;124012;1105;102446;-75
2024/01/31 09:44:26;;;;;;;;;;;;;;;4.74;75.16;102235.92;123927;1103;104262;-75
2024/01/31 09:47:00;;;;;;;40.85;20.05;;;;;;;4.81;76.03;102228.75;124051;1102;104267;-75
2024/01/31 09:49:34;;;;;;;39.20;20.25;;;;;;;4.89;75.92;102223.31;123993;1103;104396;-76
2024/01/31 09:52:08;;;;;;;38.45;19.30;;;;;;;4.96;75.80;102210.97;123897;1105;103675;-76
2024/01/31 09:54:42;;;;;;;39.27;20.13;;;;;;;4.99;75.33;102211.23;123782;1105;104361;-75
2024/01/31 09:57:15;;;;;;;38.73;20.10;;;;;;;5.04;75.33;102203.82;123880;1105;102699;-77
2024/01/31 09:59:50;;;;;;;37.03;19.60;;;;;;;5.11;75.78;102200.04;123688;1103;104188;-75
2024/01/31 10:02:24;;;;;;;37.15;18.70;;;;;;;5.15;75.56;102197.83;123841;1102;102385;-76
2024/01/31 10:04:58;;;;;;;35.60;17.80;;;;;;;5.18;74.91;102184.17;125447;1105;102022;-76
2024/01/31 10:07:33;;;;;;;35.37;18.67;;;;;;;5.21;74.87;102181.83;123838;1105;104210;-75
2024/01/31 10:10:06;;;;;;;36.63;19.93;;;;;;;5.28;75.03;102172.84;123852;1105;104326;-76
2024/01/31 10:12:37;;;;;;;40.23;20.50;;;;;;;5.33;75.16;102176.73;125891;1105;102412;-76
2024/01/31 10:15:10;;;;;;;38.30;18.70;;;;;;;5.37;74.74;102169.30;123990;1105;104623;-75
2024/01/31 10:17:45;;;;;;;36.90;18.30;;;;;;;5.43;74.20;102166.31;123816;1102;104341;-76
2024/01/31 10:20:17;;;;;;;37.50;17.83;;;;;;;5.45;74.71;102158.63;123884;1106;104176;-75
2024/01/31 10:22:49;;;;;;;36.37;17.17;;;;;;;5.51;74.57;102160.03;123903;1104;104341;-76
2024/01/31 10:25:22;;;;;;;36.07;17.20;;;;;;;5.51;73.00;102162.64;124204;1106;103417;-76
2024/01/31 10:27:53;;;;;;;36.37;18.47;;;;;;;5.53;73.96;102154.95;124164;1102;104380;-76
2024/01/31 10:30:24;;;;;;;33.27;16.80;;;;;;;5.55;73.93;102149.09;124181;1102;103618;-77
2024/01/31 10:32:57;;;;;;;34.47;17.23;;;;;;;5.59;73.29;102150.25;124438;1102;103323;-77
2024/01/31 10:35:30;;;;;;;33.50;15.77;;;;;;;5.64;73.36;102143.75;124095;1102;104347;-75
2024/01/31 10:38:02;;;;;;;33.07;16.00;;;;;;;5.69;73.54;102149.34;125867;1102;102501;-76
2024/01/31 10:40:35;;;;;;;37.03;16.83;;;;;;;5.71;72.94;102140.84;125893;1102;102539;-76
2024/01/31 10:43:11;;;;;;;35.70;17.60;;;;;;;5.77;72.97;102137.83;125741;1102;103060;-76
2024/01/31 10:45:42;;;;;;;34.10;15.77;;;;;;;5.81;73.06;102137.28;125801;1102;102828;-76
2024/01/31 10:48:16;;;;;;;33.17;16.10;;;;;;;5.81;72.41;102131.17;125781;1102;102421;-76
2024/01/31 10:51:02;;;;;;;34.97;16.47;;;;;;;5.81;72.75;102133.77;126016;1102;102685;-76
2024/01/31 10:53:35;;;;;;;34.23;16.47;;;;;;;5.83;72.84;102140.01;125969;1101;102420;-76
2024/01/31 10:56:08;;;;;;;31.68;15.23;;;;;;;5.84;72.64;102147.95;125840;1102;102693;-75
2024/01/31 10:58:41;;;;;;;31.07;14.83;;;;;;;5.86;72.08;102142.86;125975;1102;102349;-75
2024/01/31 11:01:17;;;;;;;33.23;14.77;;;;;;;5.84;71.40;102136.62;125836;1102;101417;-75
2024/01/31 11:03:49;;;;;;;31.90;13.83;;;;;;;5.83;70.98;102137.41;124537;1102;104207;-75
2024/01/31 11:06:24;;;;;;;30.57;13.40;;;;;;;5.82;70.73;102127.79;124204;1102;102179;-76
2024/01/31 11:08:55;;;;;;;26.63;13.60;;;;;;;5.82;70.87;102131.30;124181;1102;102748;-76
2024/01/31 11:11:30;;;;;;;30.00;14.60;;;;;;;5.82;70.46;102125.19;124265;1102;104204;-75
2024/01/31 11:14:12;;;;;;;28.93;14.40;;;;;;;5.81;70.48;102121.65;124261;1102;104165;-76
2024/01/31 11:16:44;;;;;;;33.10;14.87;;;;;;;5.81;70.35;102120.75;124128;1102;102350;-76